Terminal Aerodrome Forecast
Issued by NWS

Home | Current Version | Previous Version | Text Only | Print | Product List | Glossary On
Versions: 1 2 3 4 5 6 7 8 9 10 11 12 13 14 15 16 17 18 19 20 21 22 23 24 25
299
FTUS46 KMFR 071139
TAFRBG
TAF
KRBG 071139Z 0712/0812 00000KT P6SM OVC002
     FM071300 00000KT 1/2SM FG OVC002
     FM071800 00000KT 2SM BR OVC007
     FM072100 00000KT P6SM SKC
     FM080900 00000KT 1/4SM FG SKC=

USA.gov is the U.S. government's official web portal to all federal, state and local government web resources and services.